Time;durP1;ratioP1;P1;durP2;ratioP2;P2;SDS_P1;SDS_P2;PMS_P1;PMS_P2;Temp;Humidity;BMP_temperature;BMP_pressure;BME280_temperature;BME280_humidity;BME280_pressure;Samples;Min_cycle;Max_cycle;Signal;HPM_P1;HPM_P2
2022/12/01 00:01:24;;;;;;;14.63;9.15;;;;;;;6.07;41.49;101486.84;1776245;81;21180;-75
2022/12/01 00:04:30;;;;;;;13.03;8.95;;;;;;;5.83;41.80;101483.67;1776573;81;21228;-76
2022/12/01 00:07:35;;;;;;;18.82;15.63;;;;;;;5.61;41.90;101483.07;1775727;81;21382;-77
2022/12/01 00:10:41;;;;;;;7.80;5.22;;;;;;;5.98;41.54;101482.16;1776283;81;21177;-76
2022/12/01 00:13:48;;;;;;;22.32;11.53;;;;;;;5.83;41.79;101482.31;1775636;81;21200;-76
2022/12/01 00:16:54;;;;;;;8.10;4.78;;;;;;;5.70;41.98;101486.95;1776393;81;22463;-76
2022/12/01 00:20:01;;;;;;;20.02;10.38;;;;;;;6.21;41.59;101488.03;1776323;81;21189;-76
2022/12/01 00:23:06;;;;;;;9.53;3.87;;;;;;;6.06;41.76;101482.41;1774971;81;21188;-77
2022/12/01 00:26:12;;;;;;;12.10;10.08;;;;;;;5.78;42.45;101484.98;1753923;80;21179;-77
2022/12/01 00:29:11;;;;;;;14.05;9.55;;;;;;;5.59;42.79;101480.95;1750940;82;21393;-76
2022/12/01 00:32:11;;;;;;;10.65;6.55;;;;;;;5.39;43.07;101481.59;1773616;80;21213;-76
2022/12/01 00:35:17;;;;;;;5.35;2.80;;;;;;;5.46;43.47;101475.20;1773467;81;21726;-77
2022/12/01 00:38:24;;;;;;;14.45;7.03;;;;;;;6.06;42.60;101474.26;1773589;81;21204;-76
2022/12/01 00:41:31;;;;;;;14.98;10.35;;;;;;;6.02;42.40;101475.47;1767691;81;21979;-76
2022/12/01 00:44:31;;;;;;;8.88;4.90;;;;;;;5.81;42.58;101463.04;1768522;81;21266;-76
2022/12/01 00:47:37;;;;;;;10.67;3.60;;;;;;;5.77;42.49;101463.76;1769503;81;21266;-76
2022/12/01 00:50:42;;;;;;;17.67;12.00;;;;;;;6.16;41.48;101465.76;1769145;81;21192;-77
2022/12/01 00:53:48;;;;;;;7.67;3.83;;;;;;;6.39;41.37;101455.30;1769854;79;21177;-75
2022/12/01 00:56:48;;;;;;;5.65;3.55;;;;;;;6.37;41.07;101458.66;1770329;81;21198;-77
2022/12/01 00:59:53;;;;;;;8.88;7.12;;;;;;;6.20;41.24;101460.47;1770401;81;21340;-76
2022/12/01 01:03:00;;;;;;;15.10;3.37;;;;;;;6.44;41.25;101458.16;1770533;81;21194;-77
2022/12/01 01:06:12;;;;;;;7.40;4.65;;;;;;;6.41;41.20;101453.84;1770834;81;21736;-76
2022/12/01 01:09:20;;;;;;;20.85;5.40;;;;;;;6.09;41.50;101455.88;1769940;81;21230;-76
2022/12/01 01:12:25;;;;;;;5.35;3.60;;;;;;;5.86;41.86;101467.13;1770872;81;21194;-77
2022/12/01 01:15:24;;;;;;;6.65;3.98;;;;;;;5.87;42.13;101455.27;1769723;81;21784;-77
2022/12/01 01:18:30;;;;;;;6.55;3.50;;;;;;;6.03;41.57;101460.44;1770468;81;21195;-77
2022/12/01 01:21:37;;;;;;;3.58;2.40;;;;;;;5.98;41.83;101475.37;1770291;81;21246;-76
2022/12/01 01:24:43;;;;;;;8.78;4.97;;;;;;;6.00;41.58;101476.09;1770916;81;21174;-77
2022/12/01 01:27:50;;;;;;;6.20;2.70;;;;;;;5.87;41.77;101468.85;1770998;81;21665;-76
2022/12/01 01:30:56;;;;;;;5.87;2.37;;;;;;;5.37;43.03;101463.21;1768878;80;21226;-77
2022/12/01 01:34:04;;;;;;;17.48;7.40;;;;;;;5.32;43.23;101440.98;1777532;80;21209;-76
2022/12/01 01:37:09;;;;;;;10.25;8.13;;;;;;;5.20;43.52;101459.52;1779066;80;21194;-77
2022/12/01 01:40:16;;;;;;;9.58;7.20;;;;;;;5.27;43.15;101452.19;1777679;80;21167;-76
2022/12/01 01:43:24;;;;;;;5.15;3.30;;;;;;;5.37;42.95;101443.73;1779038;80;21748;-77
2022/12/01 01:46:36;;;;;;;7.45;4.80;;;;;;;5.42;43.25;101435.73;1779309;80;21229;-76
2022/12/01 01:49:41;;;;;;;7.60;2.70;;;;;;;5.25;43.75;101431.56;1777681;80;21249;-76
2022/12/01 01:52:55;;;;;;;7.58;4.87;;;;;;;5.30;43.73;101430.23;1779077;80;21228;-76
2022/12/01 01:56:00;;;;;;;5.92;4.37;;;;;;;5.04;44.03;101432.68;1779508;80;21179;-76
2022/12/01 01:59:07;;;;;;;9.08;3.55;;;;;;;5.12;44.21;101426.17;1778608;80;21181;-77
2022/12/01 02:02:15;;;;;;;8.10;2.75;;;;;;;5.25;44.07;101420.71;1779051;80;21186;-77
2022/12/01 02:05:30;;;;;;;7.08;2.37;;;;;;;5.38;43.84;101429.17;1779603;80;21185;-76
2022/12/01 02:08:37;;;;;;;15.72;5.25;;;;;;;5.41;43.42;101428.09;1779304;80;21205;-76
2022/12/01 02:12:10;;;;;;;10.18;4.05;;;;;;;5.36;43.45;101423.01;1779051;80;21212;-77
2022/12/01 02:15:27;;;;;;;8.55;3.20;;;;;;;5.48;43.67;101425.77;1778520;79;21724;-76
2022/12/01 02:19:04;;;;;;;14.28;3.62;;;;;;;5.80;43.19;101417.38;1779056;80;21189;-77
2022/12/01 02:22:45;;;;;;;13.88;3.08;;;;;;;5.48;43.76;101424.41;1779115;80;21176;-76
2022/12/01 02:26:31;;;;;;;10.63;6.05;;;;;;;4.98;44.56;101431.75;1777715;80;21498;-76
2022/12/01 02:30:00;;;;;;;12.15;3.62;;;;;;;5.34;44.04;101433.59;1777546;79;21225;-76
2022/12/01 02:33:32;;;;;;;5.58;3.02;;;;;;;5.18;44.23;101428.45;1774951;80;21198;-76
2022/12/01 02:36:49;;;;;;;17.32;4.65;;;;;;;5.37;43.92;101430.16;1770831;81;21236;-76
2022/12/01 02:40:19;;;;;;;7.65;2.72;;;;;;;5.72;43.41;101439.31;1770893;81;21926;-76
2022/12/01 02:43:35;;;;;;;12.75;4.65;;;;;;;5.30;43.88;101441.58;1771256;81;21209;-76
2022/12/01 02:46:51;;;;;;;8.58;3.33;;;;;;;5.53;43.77;101437.99;1769713;80;21194;-77
2022/12/01 02:50:00;;;;;;;7.08;2.27;;;;;;;5.16;44.15;101437.17;1770338;81;21212;-77
2022/12/01 02:53:06;;;;;;;7.53;3.10;;;;;;;5.03;44.64;101438.56;1769405;81;21194;-75
2022/12/01 02:56:15;;;;;;;11.20;3.33;;;;;;;5.17;44.35;101436.69;1770927;81;21735;-75
2022/12/01 02:59:22;;;;;;;7.30;3.20;;;;;;;4.82;45.21;101440.16;1770747;81;21165;-77
2022/12/01 03:02:42;;;;;;;11.05;3.52;;;;;;;5.09;44.97;101437.27;1769399;80;21906;-76
2022/12/01 03:06:07;;;;;;;8.35;4.75;;;;;;;4.98;44.90;101433.11;1771068;81;21237;-76
2022/12/01 03:09:35;;;;;;;7.10;2.50;;;;;;;4.73;45.66;101439.47;1771231;81;21213;-76
2022/12/01 03:12:52;;;;;;;14.33;3.22;;;;;;;5.04;45.16;101440.81;1770836;81;21185;-77
2022/12/01 03:16:20;;;;;;;10.88;3.25;;;;;;;4.99;45.12;101441.65;1740135;80;21201;-76
2022/12/01 03:19:48;;;;;;;13.48;4.00;;;;;;;5.33;44.66;101430.50;1769468;81;21736;-77
2022/12/01 03:22:59;;;;;;;10.95;2.27;;;;;;;5.41;44.40;101432.63;1770830;81;21174;-76
2022/12/01 03:26:10;;;;;;;8.78;2.58;;;;;;;5.51;44.54;101429.61;1770964;81;21221;-76
2022/12/01 03:29:19;;;;;;;13.60;2.12;;;;;;;5.59;44.11;101432.58;1769370;81;21229;-77
2022/12/01 03:32:32;;;;;;;25.02;3.20;;;;;;;5.20;44.84;101429.19;1769648;79;21209;-75
2022/12/01 03:35:41;;;;;;;9.58;2.30;;;;;;;5.07;45.19;101431.08;1771167;81;21328;-75
2022/12/01 03:38:48;;;;;;;7.43;2.63;;;;;;;5.03;45.44;101422.78;1771194;81;21166;-77
2022/12/01 03:42:06;;;;;;;15.48;5.00;;;;;;;5.08;45.78;101432.34;1770825;81;21197;-77
2022/12/01 03:45:16;;;;;;;10.40;2.65;;;;;;;5.06;45.60;101435.64;1771383;81;21153;-76
2022/12/01 03:48:22;;;;;;;7.33;2.33;;;;;;;5.22;45.34;101420.93;1761256;81;21185;-76
2022/12/01 03:51:54;;;;;;;10.53;4.05;;;;;;;4.96;45.82;101431.02;1769383;81;21217;-77
2022/12/01 03:55:27;;;;;;;9.83;5.78;;;;;;;5.01;45.92;101431.54;1770882;81;21175;-76
2022/12/01 03:58:40;;;;;;;8.18;3.50;;;;;;;4.71;46.59;101434.17;1800384;79;21181;-77
2022/12/01 04:01:46;;;;;;;11.12;3.30;;;;;;;4.93;46.28;101425.31;1799174;79;21279;-77
2022/12/01 04:04:53;;;;;;;12.45;4.67;;;;;;;5.10;45.79;101431.72;1800345;79;21562;-76
2022/12/01 04:07:58;;;;;;;8.15;2.00;;;;;;;5.09;46.05;101430.00;1800378;79;21311;-76
2022/12/01 04:14:30;;;;;;;14.95;7.17;;;;;;;5.10;45.81;101424.08;1769254;81;21526;-76
2022/12/01 04:17:35;;;;;;;9.23;3.58;;;;;;;4.79;46.47;101436.30;1768476;81;21222;-76
2022/12/01 04:20:46;;;;;;;9.18;2.30;;;;;;;4.53;47.21;101426.87;1770541;81;21155;-76
2022/12/01 04:24:02;;;;;;;5.97;2.55;;;;;;;4.62;47.22;101422.64;1769191;81;21194;-76
2022/12/01 04:27:08;;;;;;;9.78;2.42;;;;;;;4.73;46.80;101429.98;1769479;79;21145;-75
2022/12/01 04:30:14;;;;;;;6.72;3.98;;;;;;;4.65;47.06;101425.11;1769276;81;21256;-76
2022/12/01 04:33:19;;;;;;;15.18;6.53;;;;;;;4.49;47.55;101428.56;1770600;79;21189;-76
2022/12/01 04:36:25;;;;;;;8.18;3.30;;;;;;;4.50;47.58;101431.64;1769227;80;21157;-76
2022/12/01 04:39:31;;;;;;;4.70;1.90;;;;;;;4.35;48.18;101426.83;1769082;81;21220;-77
2022/12/01 04:42:36;;;;;;;5.35;2.40;;;;;;;4.54;47.98;101412.34;1767898;81;21193;-77
2022/12/01 04:45:42;;;;;;;14.47;2.83;;;;;;;4.65;47.68;101430.53;1762151;81;21796;-76
2022/12/01 04:48:47;;;;;;;22.37;2.60;;;;;;;4.49;47.83;101431.27;1768201;81;21269;-75
2022/12/01 04:51:53;;;;;;;7.40;3.52;;;;;;;4.51;47.95;101438.30;1768467;81;21879;-75
2022/12/01 04:55:00;;;;;;;11.93;3.17;;;;;;;4.43;48.22;101435.29;1767709;81;21199;-76
2022/12/01 04:58:06;;;;;;;17.00;4.12;;;;;;;4.42;48.47;101431.31;1769171;81;21302;-77
2022/12/01 05:01:14;;;;;;;7.12;2.87;;;;;;;4.42;48.38;101432.67;1768938;81;21706;-76
2022/12/01 05:04:20;;;;;;;9.28;2.95;;;;;;;4.45;48.33;101436.52;1767621;81;21231;-76
2022/12/01 05:07:25;;;;;;;10.32;4.45;;;;;;;4.60;48.08;101444.90;1769101;81;21777;-76
2022/12/01 05:10:31;;;;;;;11.03;4.20;;;;;;;4.61;48.17;101445.27;1769177;81;21218;-76
2022/12/01 05:13:38;;;;;;;6.92;3.15;;;;;;;4.36;48.57;101454.30;1769380;81;21234;-76
2022/12/01 05:16:37;;;;;;;5.35;2.50;;;;;;;4.18;49.24;101453.73;1769573;81;21198;-76
2022/12/01 05:22:53;;;;;;;10.53;3.72;;;;;;;4.18;49.40;101439.34;1673775;85;21226;-77
2022/12/01 05:26:01;;;;;;;7.78;4.12;;;;;;;4.39;48.83;101451.88;1769055;81;21256;-77
2022/12/01 05:29:07;;;;;;;10.55;3.10;;;;;;;4.32;48.99;101452.28;1767637;81;21250;-76
2022/12/01 05:32:14;;;;;;;13.65;2.47;;;;;;;4.46;48.87;101441.82;1767639;81;21254;-77
2022/12/01 05:35:19;;;;;;;5.17;3.37;;;;;;;4.34;49.04;101442.22;1768233;80;21199;-77
2022/12/01 05:38:26;;;;;;;7.70;2.22;;;;;;;4.48;48.79;101448.51;1774913;81;21201;-77
2022/12/01 05:41:31;;;;;;;6.85;3.45;;;;;;;4.30;49.00;101450.18;1774716;80;21317;-77
2022/12/01 05:44:37;;;;;;;11.85;2.25;;;;;;;4.41;49.05;101453.97;1774041;79;21180;-76
2022/12/01 05:47:43;;;;;;;8.38;2.90;;;;;;;4.31;49.13;101446.98;1782496;79;21180;-76
2022/12/01 05:50:49;;;;;;;7.70;4.00;;;;;;;4.38;48.83;101450.14;1787687;79;21178;-77
2022/12/01 05:53:55;;;;;;;6.12;2.40;;;;;;;4.26;49.12;101448.66;1743383;81;21167;-77
2022/12/01 05:57:02;;;;;;;8.28;2.98;;;;;;;4.22;49.39;101450.34;1717214;82;21165;-76
2022/12/01 06:00:10;;;;;;;7.62;3.70;;;;;;;4.25;49.28;101450.13;1716732;82;21260;-77
2022/12/01 06:03:16;;;;;;;8.23;3.47;;;;;;;4.21;49.38;101460.80;1751593;81;21170;-77
2022/12/01 06:06:22;;;;;;;15.10;5.33;;;;;;;4.21;49.22;101461.66;1751106;81;21159;-76
2022/12/01 06:09:27;;;;;;;8.25;2.72;;;;;;;4.16;49.48;101462.47;1746522;81;21166;-76
2022/12/01 06:12:32;;;;;;;10.88;2.10;;;;;;;4.29;49.43;101468.77;1751425;81;21206;-75
2022/12/01 06:15:38;;;;;;;22.45;7.42;;;;;;;4.26;49.07;101471.68;1725887;82;21240;-76
2022/12/01 06:18:46;;;;;;;11.45;4.08;;;;;;;4.35;49.13;101464.27;1723310;82;21203;-76
2022/12/01 06:21:52;;;;;;;8.83;5.87;;;;;;;4.64;48.40;101461.32;1715216;82;21310;-77
2022/12/01 06:24:58;;;;;;;7.05;3.65;;;;;;;4.49;48.20;101455.66;1721700;82;21276;-76
2022/12/01 06:28:05;;;;;;;8.90;3.45;;;;;;;4.43;48.53;101445.27;1728113;82;21236;-76
2022/12/01 06:31:11;;;;;;;11.68;4.05;;;;;;;4.68;48.19;101452.49;1727903;82;21229;-77
2022/12/01 06:34:17;;;;;;;11.83;5.22;;;;;;;4.83;47.72;101446.81;1709919;82;21233;-77
2022/12/01 06:37:22;;;;;;;15.25;8.53;;;;;;;4.69;47.97;101450.16;1738525;82;21177;-77
2022/12/01 06:40:28;;;;;;;23.70;11.88;;;;;;;4.38;48.73;101458.27;1779819;79;21184;-76
2022/12/01 06:43:34;;;;;;;12.90;7.28;;;;;;;4.58;48.06;101449.58;1774918;79;21181;-77
2022/12/01 06:46:40;;;;;;;10.72;6.87;;;;;;;4.63;47.79;101452.82;1793549;79;21197;-77
2022/12/01 06:49:46;;;;;;;8.45;3.80;;;;;;;4.74;47.61;101440.70;1783896;79;21196;-77
2022/12/01 06:52:53;;;;;;;10.10;2.60;;;;;;;4.91;47.36;101446.76;1788351;79;21209;-78
2022/12/01 06:55:59;;;;;;;10.80;4.00;;;;;;;5.48;46.00;101450.19;1779238;79;21211;-76
2022/12/01 06:59:05;;;;;;;14.95;4.83;;;;;;;5.06;46.07;101442.42;1783528;78;21708;-76
2022/12/01 07:02:15;;;;;;;6.00;3.85;;;;;;;4.72;46.69;101425.55;1725232;81;21236;-79
2022/12/01 07:05:26;;;;;;;9.10;2.80;;;;;;;4.88;46.77;101432.43;1782873;79;22146;-78
2022/12/01 07:08:31;;;;;;;11.85;5.00;;;;;;;5.23;46.48;101418.62;1780088;79;21246;-78
2022/12/01 07:11:38;;;;;;;21.05;4.85;;;;;;;5.62;45.52;101431.00;1770971;79;21477;-76
2022/12/01 07:14:44;;;;;;;9.33;3.98;;;;;;;5.53;45.76;101420.35;1704859;82;21902;-78
2022/12/01 07:17:50;;;;;;;9.43;2.72;;;;;;;5.73;45.10;101433.75;1784266;78;21216;-77
2022/12/01 07:20:55;;;;;;;14.20;4.85;;;;;;;5.66;45.08;101425.72;1791460;78;21208;-77
2022/12/01 07:24:01;;;;;;;6.25;2.17;;;;;;;5.70;44.68;101420.44;1784930;78;21206;-77
2022/12/01 07:27:06;;;;;;;12.63;6.03;;;;;;;6.14;44.03;101418.84;1786611;79;21276;-77
2022/12/01 07:30:14;;;;;;;10.70;4.72;;;;;;;6.19;43.88;101427.99;1785459;78;21137;-77
2022/12/01 07:33:21;;;;;;;11.63;5.75;;;;;;;6.37;44.06;101430.13;1783307;78;21168;-77
2022/12/01 07:36:26;;;;;;;7.78;4.53;;;;;;;6.19;44.04;101424.78;1787173;78;21221;-76
2022/12/01 07:39:33;;;;;;;9.40;4.50;;;;;;;5.92;45.01;101421.50;1790092;79;21199;-77
2022/12/01 07:42:38;;;;;;;4.35;2.50;;;;;;;5.86;44.65;101420.97;1804200;79;21216;-77
2022/12/01 07:45:43;;;;;;;12.13;4.50;;;;;;;6.10;44.50;101426.86;1804032;79;21205;-77
2022/12/01 07:48:49;;;;;;;8.10;3.27;;;;;;;5.99;44.35;101425.48;1801599;78;21173;-76
2022/12/01 07:51:55;;;;;;;6.75;3.60;;;;;;;6.09;44.33;101420.56;1808733;78;21251;-76
2022/12/01 07:55:01;;;;;;;10.43;3.40;;;;;;;6.40;44.10;101421.73;1726862;81;21154;-76
2022/12/01 07:58:07;;;;;;;8.38;3.12;;;;;;;6.44;43.91;101421.47;1740551;81;21185;-76
2022/12/01 08:01:16;;;;;;;7.83;4.05;;;;;;;6.43;43.31;101415.67;1733223;81;21399;-77
2022/12/01 08:04:22;;;;;;;13.85;5.05;;;;;;;6.25;43.86;101403.91;1743590;82;21362;-76
2022/12/01 08:07:28;;;;;;;9.13;4.35;;;;;;;6.28;43.94;101402.31;1725936;80;21242;-77
2022/12/01 08:10:32;;;;;;;11.22;3.55;;;;;;;6.87;43.71;101408.01;1738775;82;21513;-78
2022/12/01 08:13:38;;;;;;;8.33;2.70;;;;;;;6.55;43.68;101398.38;1737779;80;21367;-77
2022/12/01 08:16:45;;;;;;;8.88;3.80;;;;;;;6.04;44.83;101406.98;1742777;82;21841;-78
2022/12/01 08:19:51;;;;;;;8.45;4.00;;;;;;;5.96;44.78;101406.21;1743296;80;21241;-78
2022/12/01 08:22:59;;;;;;;8.55;2.75;;;;;;;6.39;44.26;101399.59;1736467;82;21303;-78
2022/12/01 08:26:12;;;;;;;5.72;3.30;;;;;;;6.36;44.00;101413.45;1733887;81;21165;-77
2022/12/01 08:29:20;;;;;;;5.95;2.60;;;;;;;6.16;44.42;101401.92;1732885;81;21196;-77
2022/12/01 08:32:25;;;;;;;6.83;2.92;;;;;;;6.39;44.24;101390.08;1733591;80;21771;-79
2022/12/01 08:35:32;;;;;;;4.53;2.92;;;;;;;6.26;44.45;101395.30;1736753;81;21783;-77
2022/12/01 08:38:38;;;;;;;5.92;3.27;;;;;;;6.21;44.82;101396.13;1739346;80;21308;-76
2022/12/01 08:41:44;;;;;;;10.30;3.37;;;;;;;6.07;44.61;101387.70;1738330;81;21177;-76
2022/12/01 08:44:51;;;;;;;15.40;3.33;;;;;;;6.60;43.53;101373.05;1726690;82;21230;-76
2022/12/01 08:47:59;;;;;;;6.97;3.52;;;;;;;6.42;43.38;101382.19;1786786;78;21188;-76
2022/12/01 08:51:24;;;;;;;9.80;3.40;;;;;;;6.51;43.48;101391.46;1784384;79;21230;-77
2022/12/01 08:54:30;;;;;;;11.90;3.08;;;;;;;6.54;43.79;101373.53;1772974;78;21204;-77
2022/12/01 08:57:37;;;;;;;7.72;3.50;;;;;;;6.36;43.80;101371.83;1787205;79;21172;-76
2022/12/01 09:00:43;;;;;;;8.68;3.50;;;;;;;6.27;44.25;101374.78;1777180;79;21211;-77
2022/12/01 09:04:03;;;;;;;13.32;3.87;;;;;;;6.61;43.87;101363.90;1772675;79;21149;-77
2022/12/01 09:06:58;;;;;;;5.50;2.60;;;;;;;6.87;43.66;101361.27;1772469;79;21209;-77
2022/12/01 09:10:04;;;;;;;14.15;4.55;;;;;;;7.07;43.32;101366.41;1789115;78;21847;-77
2022/12/01 09:13:10;;;;;;;8.30;3.30;;;;;;;6.70;43.95;101360.42;1792206;78;21759;-78
2022/12/01 09:16:19;;;;;;;9.70;4.75;;;;;;;6.96;44.01;101347.88;1775940;79;21177;-77
2022/12/01 09:19:27;;;;;;;6.72;2.67;;;;;;;6.72;44.49;101348.05;1786060;79;21197;-77
2022/12/01 09:22:37;;;;;;;7.45;3.92;;;;;;;6.77;43.73;101343.10;1793916;78;21764;-77
2022/12/01 09:25:42;;;;;;;7.85;3.15;;;;;;;6.72;43.40;101327.66;1775761;79;21155;-77
2022/12/01 09:28:42;;;;;;;8.48;3.80;;;;;;;6.95;43.13;101343.44;1787610;79;21172;-77
2022/12/01 09:31:49;;;;;;;5.40;3.15;;;;;;;6.72;43.37;101338.54;1797831;78;21193;-76
2022/12/01 09:34:55;;;;;;;8.98;4.45;;;;;;;6.89;43.48;101338.87;1805985;78;21193;-77
2022/12/01 09:38:01;;;;;;;10.80;3.58;;;;;;;7.06;43.01;101358.39;1772243;78;21213;-76
2022/12/01 09:41:12;;;;;;;13.53;3.60;;;;;;;7.14;43.20;101334.09;1795397;78;21168;-77
2022/12/01 09:44:51;;;;;;;11.10;3.90;;;;;;;7.09;42.75;101332.27;1815672;77;21207;-76
2022/12/01 09:48:02;;;;;;;7.00;3.58;;;;;;;6.91;42.81;101335.52;1809021;78;21182;-76
2022/12/01 09:51:08;;;;;;;5.92;3.58;;;;;;;7.19;42.40;101341.38;1803128;78;21180;-76
2022/12/01 09:54:14;;;;;;;6.75;3.55;;;;;;;7.44;42.18;101351.06;1809379;78;21756;-77
2022/12/01 09:57:43;;;;;;;5.30;2.87;;;;;;;7.49;42.09;101332.98;1794464;78;21393;-78
2022/12/01 10:00:48;;;;;;;8.05;3.55;;;;;;;7.45;41.89;101327.42;1796460;77;21211;-79
2022/12/01 10:04:01;;;;;;;15.30;3.22;;;;;;;7.36;42.04;101323.62;1815170;78;21587;-78
2022/12/01 10:07:13;;;;;;;7.80;3.00;;;;;;;7.45;41.82;101324.20;1814614;78;21175;-77
2022/12/01 10:10:45;;;;;;;6.78;3.50;;;;;;;7.52;42.05;101325.89;1817215;77;21189;-76
2022/12/01 10:13:54;;;;;;;6.42;3.30;;;;;;;7.56;41.47;101329.58;1815794;78;21177;-76
2022/12/01 10:17:25;;;;;;;7.25;3.30;;;;;;;7.33;41.58;101312.98;1788015;79;21163;-77
2022/12/01 10:20:47;;;;;;;4.90;2.98;;;;;;;7.63;41.36;101318.53;1778977;79;21195;-77
2022/12/01 10:24:25;;;;;;;11.28;4.00;;;;;;;7.51;41.36;101306.47;1783746;79;21173;-78
2022/12/01 10:27:57;;;;;;;10.25;3.17;;;;;;;8.01;41.21;101313.46;1791166;79;21866;-77
2022/12/01 10:31:06;;;;;;;5.30;3.02;;;;;;;7.86;41.31;101305.64;1784629;79;21802;-77
2022/12/01 10:34:25;;;;;;;6.58;3.00;;;;;;;8.01;41.36;101302.56;1775780;80;21199;-77
2022/12/01 10:37:34;;;;;;;;;;;;;;;7.79;41.66;101296.77;1797943;79;21275;-76
2022/12/01 10:40:38;;;;;;;6.70;2.67;;;;;;;8.25;41.08;101288.61;1778894;79;20232;-77
2022/12/01 10:43:50;;;;;;;8.15;3.58;;;;;;;8.24;40.72;101294.56;1763153;80;21374;-78
2022/12/01 10:47:01;;;;;;;9.25;4.35;;;;;;;8.53;40.40;101285.15;1787159;79;21217;-78
2022/12/01 10:50:06;;;;;;;9.53;4.20;;;;;;;8.51;40.62;101284.41;1780347;80;21208;-77
2022/12/01 10:53:14;;;;;;;5.25;3.30;;;;;;;8.27;40.95;101287.45;1781905;79;21173;-78
2022/12/01 10:56:26;;;;;;;5.95;3.62;;;;;;;8.35;41.15;101285.41;1781351;79;21177;-77
2022/12/01 10:59:41;;;;;;;14.15;3.80;;;;;;;8.58;40.83;101280.64;1790230;79;21355;-76
2022/12/01 11:02:48;;;;;;;10.45;4.45;;;;;;;8.68;41.03;101285.61;1783869;79;21209;-78
2022/12/01 11:06:02;;;;;;;10.90;5.55;;;;;;;8.67;40.88;101286.11;1737440;80;21905;-77
2022/12/01 11:09:11;;;;;;;10.82;4.75;;;;;;;8.54;41.28;101281.41;1784643;79;21236;-77
2022/12/01 11:12:22;;;;;;;9.33;4.22;;;;;;;8.39;41.67;101289.12;1778401;79;21498;-78
2022/12/01 11:15:35;;;;;;;7.70;4.20;;;;;;;8.75;40.70;101285.90;1786760;79;21188;-78
2022/12/01 11:18:43;;;;;;;11.00;3.47;;;;;;;8.66;40.88;101278.08;1775690;79;21209;-77
2022/12/01 11:21:58;;;;;;;6.30;3.52;;;;;;;8.67;40.96;101274.34;1785501;80;21268;-77
2022/12/01 11:25:08;;;;;;;6.70;4.40;;;;;;;8.43;41.51;101287.84;1786340;80;21168;-76
2022/12/01 11:28:13;;;;;;;6.33;3.65;;;;;;;8.53;41.77;101277.47;1782191;79;21898;-77
2022/12/01 11:31:14;;;;;;;5.15;3.27;;;;;;;8.54;41.88;101288.23;1782974;80;21193;-77
2022/12/01 11:34:37;;;;;;;5.80;2.62;;;;;;;8.40;42.31;101296.30;1778508;80;21177;-78
2022/12/01 11:37:48;;;;;;;7.55;3.90;;;;;;;8.57;42.09;101295.28;1778908;80;21214;-78
2022/12/01 11:41:04;;;;;;;9.50;3.95;;;;;;;8.38;42.43;101287.91;1787352;80;22617;-76
2022/12/01 11:44:11;;;;;;;10.88;3.40;;;;;;;8.74;41.86;101291.86;1730765;82;21199;-76
2022/12/01 11:47:31;;;;;;;27.17;8.13;;;;;;;8.77;41.80;101282.55;1741079;81;21254;-79
2022/12/01 11:50:45;;;;;;;37.40;11.75;;;;;;;8.82;42.00;101282.48;1724028;82;21189;-78
2022/12/01 11:53:51;;;;;;;38.48;23.05;;;;;;;8.84;42.15;101283.19;1723699;80;21795;-78
2022/12/01 11:56:59;;;;;;;76.47;27.15;;;;;;;9.14;41.71;101292.28;1778595;79;21215;-78
2022/12/01 12:00:07;;;;;;;15.28;4.45;;;;;;;8.87;42.52;101274.73;1775241;80;21369;-77
2022/12/01 12:03:37;;;;;;;21.27;5.58;;;;;;;8.93;42.08;101271.92;1767166;79;21215;-78
2022/12/01 12:07:09;;;;;;;18.70;7.37;;;;;;;8.91;41.63;101273.44;1791331;80;21204;-77
2022/12/01 12:10:34;;;;;;;4.60;2.10;;;;;;;8.66;41.89;101270.76;1791217;80;21871;-76
2022/12/01 12:14:13;;;;;;;9.15;2.70;;;;;;;8.60;41.79;101266.34;1795183;79;21172;-77
2022/12/01 12:17:45;;;;;;;11.40;4.72;;;;;;;8.31;42.16;101271.19;1797851;79;21224;-75
2022/12/01 12:21:24;;;;;;;19.55;3.72;;;;;;;8.42;42.07;101258.87;1776921;80;21180;-76
2022/12/01 12:24:39;;;;;;;34.63;9.08;;;;;;;8.66;42.21;101268.53;1760134;81;21171;-76
2022/12/01 12:28:02;;;;;;;22.73;7.03;;;;;;;8.34;42.76;101269.56;1718190;82;21728;-77
2022/12/01 12:31:41;;;;;;;21.15;7.67;;;;;;;8.01;44.06;101271.23;1741261;81;21262;-77
2022/12/01 12:35:23;;;;;;;31.30;7.55;;;;;;;8.05;44.37;101274.05;1745080;81;21209;-76
2022/12/01 12:38:50;;;;;;;17.23;5.47;;;;;;;8.14;44.81;101262.33;1738642;81;21229;-76
2022/12/01 12:41:55;;;;;;;17.00;4.65;;;;;;;8.46;44.15;101259.42;1743986;81;21220;-77
2022/12/01 12:44:53;;;;;;;10.48;4.33;;;;;;;8.51;44.36;101261.73;1793756;79;21580;-76
2022/12/01 12:48:22;;;;;;;13.20;5.47;;;;;;;8.82;44.05;101260.66;1795295;78;21825;-76
2022/12/01 12:51:44;;;;;;;15.63;4.58;;;;;;;8.82;44.13;101260.66;1797899;79;21810;-77
2022/12/01 12:55:01;;;;;;;28.85;9.98;;;;;;;8.88;44.33;101260.58;1792539;79;21163;-77
2022/12/01 12:58:20;;;;;;;18.42;6.45;;;;;;;8.72;44.37;101265.23;1777915;80;21223;-77
2022/12/01 13:01:31;;;;;;;33.00;12.90;;;;;;;8.76;44.68;101272.14;1773152;79;21760;-78
2022/12/01 13:05:10;;;;;;;26.37;8.63;;;;;;;8.76;44.84;101283.05;1760514;81;21453;-77
2022/12/01 13:08:25;;;;;;;16.73;5.83;;;;;;;8.55;44.97;101276.81;1759812;81;21252;-78
2022/12/01 13:11:41;;;;;;;17.42;4.20;;;;;;;8.53;45.17;101281.06;1772111;79;21465;-77
2022/12/01 13:14:53;;;;;;;13.35;4.05;;;;;;;8.93;44.71;101285.06;1790250;79;21833;-77
2022/12/01 13:18:07;;;;;;;12.15;3.52;;;;;;;8.41;45.35;101283.52;1797110;79;21215;-77
2022/12/01 13:21:12;;;;;;;8.45;3.40;;;;;;;8.42;45.56;101288.86;1798121;79;21783;-77
2022/12/01 13:24:24;;;;;;;3.75;1.95;;;;;;;8.17;45.63;101281.97;1776270;79;21160;-77
2022/12/01 13:27:31;;;;;;;3.47;1.72;;;;;;;8.22;45.24;101288.88;1777536;80;21834;-77
2022/12/01 13:30:37;;;;;;;9.68;3.70;;;;;;;7.93;45.21;101295.91;1776615;80;21195;-76
2022/12/01 13:33:42;;;;;;;9.95;3.42;;;;;;;8.02;44.90;101288.80;1792129;80;21236;-77
2022/12/01 13:36:49;;;;;;;8.65;2.58;;;;;;;7.89;44.96;101286.28;1796317;79;21201;-76
2022/12/01 13:39:55;;;;;;;8.68;2.15;;;;;;;7.91;44.88;101281.58;1718260;81;21406;-78
2022/12/01 13:43:10;;;;;;;7.92;2.62;;;;;;;8.17;44.26;101291.50;1756777;80;21184;-76
2022/12/01 13:46:30;;;;;;;4.60;1.92;;;;;;;8.28;43.90;101291.04;1778913;79;21219;-77
2022/12/01 13:50:04;;;;;;;14.63;7.08;;;;;;;8.25;43.71;101287.25;1793720;78;21536;-76
2022/12/01 13:53:38;;;;;;;8.63;3.85;;;;;;;8.20;43.62;101286.30;1700758;84;21189;-76
2022/12/01 13:56:35;;;;;;;18.02;6.35;;;;;;;7.65;44.29;101289.30;1657588;86;21221;-77
2022/12/01 13:59:47;;;;;;;12.35;5.62;;;;;;;7.73;43.93;101290.50;1717596;83;21221;-76
2022/12/01 14:02:48;;;;;;;8.95;4.87;;;;;;;7.86;43.61;101285.21;1716857;83;21281;-79
2022/12/01 14:06:02;;;;;;;14.38;6.40;;;;;;;8.01;43.32;101293.02;1686591;85;21264;-78
2022/12/01 19:41:37;;;;;;;7.97;2.30;;;;;;;-0.27;51.83;101277.78;1917659;75;22599;-81
2022/12/01 19:44:44;;;;;;;6.83;3.40;;;;;;;-0.32;51.78;101278.03;1817464;79;21236;-81
2022/12/01 19:47:52;;;;;;;4.10;2.00;;;;;;;-0.31;52.02;101273.52;1851062;77;21596;-82
2022/12/01 19:50:58;;;;;;;7.05;2.80;;;;;;;-0.36;52.10;101281.83;1816596;79;21181;-81
2022/12/01 19:54:05;;;;;;;4.45;2.37;;;;;;;-0.40;52.49;101281.59;1851323;77;21165;-81
2022/12/01 19:57:11;;;;;;;4.03;2.60;;;;;;;-0.44;52.20;101279.16;1817454;79;21157;-80
2022/12/01 20:00:18;;;;;;;39.73;20.00;;;;;;;-0.46;52.99;101275.69;1850707;77;21188;-81
2022/12/01 20:03:23;;;;;;;9.98;5.53;;;;;;;-0.46;52.94;101279.72;1817854;79;21149;-81
2022/12/01 20:06:31;;;;;;;7.83;2.75;;;;;;;-0.46;52.96;101275.22;1851172;77;21177;-81
2022/12/01 20:09:36;;;;;;;7.10;2.55;;;;;;;-0.45;53.22;101273.39;1818011;79;21632;-81
2022/12/01 20:12:44;;;;;;;5.17;2.60;;;;;;;-0.48;53.04;101277.09;1851315;77;21125;-81
2022/12/01 20:15:50;;;;;;;5.40;1.90;;;;;;;-0.50;53.08;101279.02;1816705;79;21184;-80
2022/12/01 20:18:55;;;;;;;8.28;3.20;;;;;;;-0.48;53.12;101278.44;1851040;77;21781;-81
2022/12/01 20:22:01;;;;;;;6.97;2.70;;;;;;;-0.48;53.34;101277.09;1816304;79;21216;-81
2022/12/01 20:25:08;;;;;;;17.35;2.65;;;;;;;-0.49;53.71;101278.53;1850566;77;21168;-79
2022/12/01 20:28:15;;;;;;;6.05;2.80;;;;;;;-0.50;53.72;101279.02;1817555;79;21136;-80
2022/12/01 20:31:25;;;;;;;6.97;2.98;;;;;;;-0.50;53.87;101284.87;1849523;77;21176;-81